createdAt,value
2023-02-27T00:03:02.303Z,69.82
2023-02-27T00:06:05.743Z,69.85
2023-02-27T00:09:09.015Z,69.74
2023-02-27T00:12:12.346Z,69.78
2023-02-27T00:15:20.167Z,69.88
2023-02-27T00:18:23.556Z,69.94
2023-02-27T00:21:27.709Z,69.90
2023-02-27T00:24:31.345Z,69.94
2023-02-27T00:27:34.913Z,69.89
2023-02-27T00:30:38.582Z,69.87
2023-02-27T00:33:41.857Z,69.87
2023-02-27T00:36:45.629Z,69.88
2023-02-27T00:39:48.824Z,69.91
2023-02-27T00:42:52.728Z,69.94
2023-02-27T00:45:56.033Z,69.94
2023-02-27T00:48:59.337Z,69.90
2023-02-27T00:52:02.525Z,70.00
2023-02-27T00:55:06.216Z,69.97
2023-02-27T00:58:09.451Z,70.02
2023-02-27T01:01:12.812Z,70.03
2023-02-27T01:04:16.140Z,69.97
2023-02-27T01:07:19.981Z,69.90
2023-02-27T01:10:24.079Z,69.96
2023-02-27T01:13:27.451Z,70.04
2023-02-27T01:16:31.718Z,70.10
2023-02-27T01:19:34.920Z,70.13
2023-02-27T01:22:38.445Z,70.14
2023-02-27T01:25:41.969Z,70.24
2023-02-27T01:28:45.283Z,70.22
2023-02-27T01:31:49.435Z,70.17
2023-02-27T01:34:52.696Z,70.09
2023-02-27T01:37:55.905Z,69.97
2023-02-27T01:41:00.737Z,69.99
2023-02-27T01:44:12.513Z,70.00
2023-02-27T01:47:16.062Z,69.93
2023-02-27T01:50:20.499Z,69.90
2023-02-27T01:53:26.189Z,69.60
2023-02-27T01:56:32.174Z,69.55
2023-02-27T01:59:37.553Z,69.51
2023-02-27T02:02:47.774Z,69.35
2023-02-27T02:05:53.596Z,69.26
2023-02-27T02:08:59.757Z,69.15
2023-02-27T02:12:04.271Z,68.88
2023-02-27T02:15:08.063Z,68.62
2023-02-27T02:18:20.356Z,68.57
2023-02-27T02:21:54.224Z,68.30
2023-02-27T02:25:15.382Z,68.20
2023-02-27T02:28:50.469Z,68.17
2023-02-27T02:32:14.653Z,68.05
2023-02-27T02:35:46.778Z,67.90
2023-02-27T02:39:08.688Z,67.93
2023-02-27T02:42:27.026Z,67.92
2023-02-27T02:46:02.241Z,67.89
2023-02-27T02:49:18.949Z,67.84
2023-02-27T02:52:28.302Z,67.94
2023-02-27T02:55:40.688Z,67.93
2023-02-27T02:59:09.300Z,67.86
2023-02-27T03:02:18.590Z,67.81
2023-02-27T03:05:26.633Z,67.83
2023-02-27T03:08:37.296Z,67.92
2023-02-27T03:11:44.217Z,67.89
2023-02-27T03:14:50.529Z,67.81
2023-02-27T03:18:01.550Z,67.74
2023-02-27T03:21:11.819Z,67.71
2023-02-27T03:24:26.222Z,67.73
2023-02-27T03:27:40.795Z,67.71
2023-02-27T03:31:10.211Z,67.60
2023-02-27T03:34:25.013Z,67.59
2023-02-27T03:37:58.234Z,67.55
2023-02-27T03:41:30.724Z,67.44
2023-02-27T03:45:05.919Z,67.60
2023-02-27T03:48:09.460Z,67.57
2023-02-27T03:51:16.156Z,67.59
2023-02-27T03:54:32.575Z,67.59
2023-02-27T03:57:37.669Z,67.67
2023-02-27T04:00:41.903Z,67.63
2023-02-27T04:03:57.729Z,67.72
2023-02-27T04:07:58.055Z,67.84
2023-02-27T04:11:34.449Z,68.03
2023-02-27T04:15:12.828Z,68.11
2023-02-27T04:18:31.118Z,68.03
2023-02-27T04:21:34.256Z,68.06
2023-02-27T04:24:59.024Z,68.05
2023-02-27T04:28:19.686Z,68.10
2023-02-27T04:31:37.265Z,68.08
2023-02-27T04:34:53.270Z,68.10
2023-02-27T04:38:08.342Z,68.16
2023-02-27T04:41:25.448Z,68.28
2023-02-27T04:44:31.552Z,68.30
2023-02-27T04:47:40.490Z,68.30
2023-02-27T04:50:50.270Z,68.39
2023-02-27T04:54:16.796Z,68.43
2023-02-27T04:57:26.033Z,68.42
2023-02-27T05:00:32.765Z,68.57
2023-02-27T05:03:43.665Z,68.63
2023-02-27T05:06:48.943Z,68.69
2023-02-27T05:10:06.158Z,68.65
2023-02-27T05:13:13.340Z,68.56
2023-02-27T05:16:22.309Z,68.47
2023-02-27T05:19:25.707Z,68.58
2023-02-27T05:22:57.006Z,68.54
2023-02-27T05:26:38.267Z,68.44
2023-02-27T05:29:48.763Z,68.35
2023-02-27T05:33:05.962Z,68.35
2023-02-27T05:36:16.988Z,68.29
2023-02-27T05:39:23.821Z,68.34
2023-02-27T05:42:32.241Z,68.41
2023-02-27T05:45:39.453Z,68.34
2023-02-27T05:48:59.560Z,68.23
2023-02-27T05:52:07.294Z,68.21
2023-02-27T05:55:13.297Z,68.17
2023-02-27T05:58:24.332Z,68.22
2023-02-27T06:01:27.563Z,68.24
2023-02-27T06:04:30.787Z,68.17
2023-02-27T06:07:35.043Z,68.09
2023-02-27T06:10:38.688Z,68.13
2023-02-27T06:13:42.324Z,68.15
2023-02-27T06:16:45.616Z,68.29
2023-02-27T06:19:49.134Z,68.36
2023-02-27T06:22:52.573Z,68.41
2023-02-27T06:25:55.845Z,68.42
2023-02-27T06:28:59.966Z,68.32
2023-02-27T06:32:03.297Z,68.31
2023-02-27T06:35:07.481Z,68.34
2023-02-27T06:38:10.685Z,68.37
2023-02-27T06:41:13.922Z,68.41
2023-02-27T06:44:19.479Z,68.44
2023-02-27T06:47:22.934Z,68.53
2023-02-27T06:50:26.198Z,68.52
2023-02-27T06:53:29.740Z,68.58
2023-02-27T06:56:33.033Z,68.62
2023-02-27T06:59:36.318Z,68.61
2023-02-27T07:02:40.041Z,68.56
2023-02-27T07:05:43.851Z,68.56
2023-02-27T07:13:05.692Z,68.72
2023-02-27T07:19:43.053Z,68.84
2023-02-27T07:22:47.140Z,68.93
2023-02-27T07:25:50.452Z,68.93
2023-02-27T07:32:44.715Z,69.22
2023-02-27T07:35:48.435Z,69.23
2023-02-27T07:39:08.891Z,69.35
2023-02-27T07:46:02.230Z,69.43
2023-02-27T07:53:05.572Z,69.56
2023-02-27T07:56:20.936Z,69.59
2023-02-27T07:59:34.931Z,69.64
2023-02-27T08:02:38.819Z,69.64
2023-02-27T08:05:42.190Z,69.59
2023-02-27T08:12:35.181Z,69.75
2023-02-27T08:18:41.702Z,69.94
2023-02-27T08:21:45.133Z,70.08
2023-02-27T08:24:58.984Z,70.19
2023-02-27T08:28:07.322Z,70.24
2023-02-27T08:31:11.156Z,70.36
2023-02-27T08:34:14.691Z,70.51
2023-02-27T08:37:18.237Z,70.70
2023-02-27T08:40:21.440Z,70.85
2023-02-27T08:43:24.674Z,70.99
2023-02-27T08:46:28.264Z,71.13
2023-02-27T08:49:32.109Z,71.32
2023-02-27T08:52:35.273Z,71.23
2023-02-27T08:55:38.537Z,71.30
2023-02-27T08:58:41.873Z,71.20
2023-02-27T09:01:45.422Z,71.07
2023-02-27T09:04:57.701Z,70.84
2023-02-27T09:08:05.259Z,70.76
2023-02-27T09:11:18.244Z,70.69
2023-02-27T09:14:21.839Z,70.60
2023-02-27T09:17:25.149Z,70.38
2023-02-27T09:20:30.119Z,69.83
2023-02-27T09:23:34.020Z,69.31
2023-02-27T09:26:45.405Z,69.05
2023-02-27T09:33:12.555Z,68.33
2023-02-27T09:36:16.312Z,68.41
2023-02-27T09:39:19.598Z,68.11
2023-02-27T09:42:26.372Z,68.00
2023-02-27T09:45:36.951Z,67.52
2023-02-27T09:48:50.143Z,67.04
2023-02-27T09:51:54.089Z,66.90
2023-02-27T09:54:58.221Z,66.97
2023-02-27T09:58:29.323Z,66.62
2023-02-27T10:01:50.880Z,66.31
2023-02-27T10:05:13.312Z,66.20
2023-02-27T10:08:39.362Z,66.09
2023-02-27T10:12:07.506Z,65.85
2023-02-27T10:15:22.280Z,65.80
2023-02-27T10:18:31.260Z,65.91
2023-02-27T10:21:38.305Z,65.86
2023-02-27T10:24:55.472Z,65.99
2023-02-27T10:28:13.147Z,65.99
2023-02-27T10:35:04.862Z,65.43
2023-02-27T10:38:31.952Z,64.53
2023-02-27T10:41:36.780Z,64.67
2023-02-27T10:44:40.361Z,64.85
2023-02-27T10:47:47.731Z,65.11
2023-02-27T10:50:52.390Z,65.26
2023-02-27T10:54:18.902Z,65.39
2023-02-27T10:57:41.427Z,65.47
2023-02-27T11:00:59.447Z,65.63
2023-02-27T11:04:03.271Z,65.63
2023-02-27T11:07:10.436Z,65.69
2023-02-27T11:10:24.849Z,65.57
2023-02-27T11:13:31.904Z,65.30
2023-02-27T11:16:49.810Z,65.50
2023-02-27T11:19:53.371Z,65.65
2023-02-27T11:23:36.138Z,65.66
2023-02-27T11:26:53.433Z,65.78
2023-02-27T11:30:02.584Z,65.83
2023-02-27T11:33:19.186Z,65.22
2023-02-27T11:36:23.834Z,65.30
2023-02-27T11:39:32.638Z,65.01
2023-02-27T11:42:41.892Z,64.84
2023-02-27T11:46:10.147Z,64.52
2023-02-27T11:49:33.754Z,64.38
2023-02-27T11:52:45.305Z,64.19
2023-02-27T11:55:50.142Z,63.65
2023-02-27T11:59:13.537Z,63.58
2023-02-27T12:02:55.450Z,63.32
2023-02-27T12:06:06.946Z,62.95
2023-02-27T12:09:30.596Z,63.00
2023-02-27T12:13:33.347Z,62.75
2023-02-27T12:17:37.105Z,62.56
2023-02-27T12:21:07.642Z,62.42
2023-02-27T12:24:41.798Z,62.52
2023-02-27T12:28:08.502Z,62.06
2023-02-27T12:31:36.399Z,62.16
2023-02-27T12:34:55.070Z,61.84
2023-02-27T12:37:58.674Z,61.70
2023-02-27T12:41:19.683Z,61.67
2023-02-27T12:44:37.304Z,61.33
2023-02-27T12:47:49.508Z,60.92
2023-02-27T12:51:20.355Z,60.89
2023-02-27T12:54:35.458Z,60.90
2023-02-27T12:58:00.320Z,61.26
2023-02-27T13:01:19.556Z,61.36
2023-02-27T13:04:44.397Z,61.58
2023-02-27T13:08:21.498Z,61.69
2023-02-27T13:11:36.825Z,61.80
2023-02-27T13:15:12.209Z,61.56
2023-02-27T13:18:45.639Z,61.52
2023-02-27T13:22:03.251Z,61.64
2023-02-27T13:25:14.296Z,61.92
2023-02-27T13:28:25.568Z,61.51
2023-02-27T13:31:57.253Z,61.27
2023-02-27T13:35:39.345Z,61.07
2023-02-27T13:38:45.300Z,60.67
2023-02-27T13:41:48.495Z,60.99
2023-02-27T13:44:52.546Z,60.58
2023-02-27T13:47:56.963Z,60.23
2023-02-27T13:51:01.225Z,59.93
2023-02-27T13:54:13.496Z,60.12
2023-02-27T13:57:22.550Z,60.08
2023-02-27T14:00:29.810Z,60.02
2023-02-27T14:03:33.231Z,59.93
2023-02-27T14:06:44.338Z,59.91
2023-02-27T14:09:53.867Z,59.12
2023-02-27T14:12:59.048Z,58.78
2023-02-27T14:16:02.440Z,58.75
2023-02-27T14:19:18.117Z,58.77
2023-02-27T14:23:08.984Z,58.66
2023-02-27T14:26:19.177Z,58.51
2023-02-27T14:29:31.285Z,58.30
2023-02-27T14:32:37.270Z,58.44
2023-02-27T14:35:45.764Z,58.56
2023-02-27T14:38:50.638Z,58.56
2023-02-27T14:42:38.649Z,58.55
2023-02-27T14:45:42.036Z,58.54
2023-02-27T14:48:45.677Z,58.53
2023-02-27T14:51:50.647Z,58.59
2023-02-27T14:55:05.729Z,58.62
2023-02-27T14:58:14.437Z,58.61
2023-02-27T15:01:18.146Z,58.76
2023-02-27T15:04:24.154Z,58.39
2023-02-27T15:07:31.883Z,58.46
2023-02-27T15:10:35.111Z,58.70
2023-02-27T15:13:40.032Z,58.54
2023-02-27T15:16:43.253Z,58.69
2023-02-27T15:19:52.357Z,58.56
2023-02-27T15:23:16.161Z,58.84
2023-02-27T15:26:19.488Z,58.86
2023-02-27T15:29:26.741Z,59.05
2023-02-27T15:32:36.550Z,59.15
2023-02-27T15:35:44.859Z,59.27
2023-02-27T15:39:04.107Z,59.60
2023-02-27T15:42:07.711Z,59.50
2023-02-27T15:45:21.435Z,59.43
2023-02-27T15:48:25.628Z,59.49
2023-02-27T15:51:29.340Z,59.41
2023-02-27T15:54:34.894Z,59.40
2023-02-27T15:57:38.295Z,59.52
2023-02-27T16:00:41.623Z,59.40
2023-02-27T16:03:51.462Z,59.60
2023-02-27T16:07:08.184Z,59.55
2023-02-27T16:10:29.965Z,59.60
2023-02-27T16:13:38.808Z,59.52
2023-02-27T16:16:55.811Z,59.41
2023-02-27T16:20:02.249Z,59.52
2023-02-27T16:23:29.027Z,59.66
2023-02-27T16:26:39.285Z,59.70
2023-02-27T16:29:45.770Z,59.61
2023-02-27T16:32:49.183Z,59.90
2023-02-27T16:36:15.826Z,59.96
2023-02-27T16:39:18.951Z,60.05
2023-02-27T16:42:22.242Z,60.05
2023-02-27T16:45:27.749Z,60.21
2023-02-27T16:48:30.955Z,60.43
2023-02-27T16:51:34.973Z,60.34
2023-02-27T16:54:38.149Z,60.19
2023-02-27T16:57:41.283Z,60.31
2023-02-27T17:00:44.889Z,60.13
2023-02-27T17:03:48.173Z,60.05
2023-02-27T17:06:51.930Z,59.90
2023-02-27T17:09:55.070Z,59.61
2023-02-27T17:12:58.189Z,59.75
2023-02-27T17:16:01.487Z,59.63
2023-02-27T17:19:04.802Z,59.32
2023-02-27T17:22:07.959Z,59.28
2023-02-27T17:25:12.252Z,59.37
2023-02-27T17:28:16.036Z,59.44
2023-02-27T17:31:23.118Z,59.54
2023-02-27T17:34:26.306Z,59.42
2023-02-27T17:37:29.569Z,59.12
2023-02-27T17:40:32.736Z,58.89
2023-02-27T17:43:36.233Z,58.77
2023-02-27T17:46:40.465Z,58.87
2023-02-27T17:49:43.805Z,58.91
2023-02-27T17:52:47.119Z,58.99
2023-02-27T17:55:50.561Z,58.81
2023-02-27T17:58:53.736Z,58.77
2023-02-27T18:01:57.094Z,58.91
2023-02-27T18:05:00.398Z,58.84
2023-02-27T18:08:04.243Z,58.71
2023-02-27T18:11:15.397Z,58.58
2023-02-27T18:14:18.894Z,58.39
2023-02-27T18:17:22.074Z,58.55
2023-02-27T18:20:25.373Z,58.53
2023-02-27T18:23:28.740Z,58.69
2023-02-27T18:26:33.113Z,58.51
2023-02-27T18:29:36.876Z,58.62
2023-02-27T18:32:40.037Z,58.13
2023-02-27T18:35:43.275Z,58.09
2023-02-27T18:38:47.003Z,58.14
2023-02-27T18:41:50.190Z,58.07
2023-02-27T18:44:53.419Z,58.24
2023-02-27T18:47:57.351Z,58.20
2023-02-27T18:51:05.638Z,58.14
2023-02-27T18:54:13.205Z,58.13
2023-02-27T18:57:16.389Z,58.08
2023-02-27T19:00:21.841Z,58.16
2023-02-27T19:03:25.222Z,57.96
2023-02-27T19:06:28.878Z,57.50
2023-02-27T19:09:32.887Z,57.55
2023-02-27T19:12:36.254Z,57.57
2023-02-27T19:15:40.033Z,57.46
2023-02-27T19:18:43.180Z,57.40
2023-02-27T19:21:49.277Z,57.20
2023-02-27T19:24:52.703Z,57.35
2023-02-27T19:27:57.183Z,57.89
2023-02-27T19:31:05.872Z,58.05
2023-02-27T19:34:09.033Z,58.12
2023-02-27T19:37:12.465Z,57.90
2023-02-27T19:40:16.095Z,57.89
2023-02-27T19:43:19.390Z,58.10
2023-02-27T19:46:26.319Z,57.82
2023-02-27T19:49:29.545Z,57.83
2023-02-27T19:52:35.575Z,57.73
2023-02-27T19:55:41.376Z,57.53
2023-02-27T19:58:44.987Z,57.47
2023-02-27T20:01:48.789Z,57.63
2023-02-27T20:04:52.059Z,57.39
2023-02-27T20:07:57.696Z,57.63
2023-02-27T20:11:03.438Z,57.60
2023-02-27T20:14:07.489Z,57.69
2023-02-27T20:17:11.158Z,57.67
2023-02-27T20:20:14.423Z,57.80
2023-02-27T20:23:17.585Z,57.98
2023-02-27T20:26:28.342Z,57.70
2023-02-27T20:29:31.694Z,57.41
2023-02-27T20:32:34.857Z,57.17
2023-02-27T20:35:38.978Z,57.05
2023-02-27T20:38:42.728Z,56.92
2023-02-27T20:41:46.682Z,57.02
2023-02-27T20:44:49.769Z,57.30
2023-02-27T20:47:53.094Z,57.20
2023-02-27T20:50:56.325Z,57.39
2023-02-27T20:54:00.303Z,57.25
2023-02-27T20:57:03.707Z,57.41
2023-02-27T21:00:11.042Z,57.65
2023-02-27T21:03:14.295Z,57.71
2023-02-27T21:06:18.590Z,57.59
2023-02-27T21:09:22.324Z,57.43
2023-02-27T21:12:25.624Z,57.21
2023-02-27T21:15:28.838Z,57.45
2023-02-27T21:18:32.553Z,57.20
2023-02-27T21:21:36.978Z,57.24
2023-02-27T21:24:40.187Z,57.47
2023-02-27T21:27:43.399Z,57.27
2023-02-27T21:30:46.667Z,57.14
2023-02-27T21:33:51.472Z,57.03
2023-02-27T21:36:55.677Z,57.20
2023-02-27T21:40:00.498Z,57.39
2023-02-27T21:43:03.737Z,57.42
2023-02-27T21:46:12.591Z,57.11
2023-02-27T21:49:25.217Z,57.31
2023-02-27T21:52:28.451Z,57.23
2023-02-27T21:55:34.458Z,57.05
2023-02-27T21:58:39.014Z,56.82
2023-02-27T22:01:47.278Z,56.65
2023-02-27T22:04:50.753Z,56.95
2023-02-27T22:07:53.971Z,57.10
2023-02-27T22:11:00.538Z,57.16
2023-02-27T22:14:05.756Z,57.10
2023-02-27T22:17:09.501Z,57.11
2023-02-27T22:20:12.947Z,57.26
2023-02-27T22:23:16.143Z,57.27
2023-02-27T22:26:25.930Z,57.39
2023-02-27T22:29:29.131Z,57.46
2023-02-27T22:32:32.349Z,57.45
2023-02-27T22:35:36.752Z,57.63
2023-02-27T22:38:40.080Z,57.76
2023-02-27T22:41:43.389Z,57.47
2023-02-27T22:44:46.592Z,57.51
2023-02-27T22:47:49.869Z,57.84
2023-02-27T22:51:06.108Z,57.81
2023-02-27T22:54:11.774Z,57.89
2023-02-27T22:57:15.022Z,57.85
2023-02-27T23:00:19.153Z,57.82
2023-02-27T23:03:22.330Z,57.69
2023-02-27T23:06:28.945Z,57.84
2023-02-27T23:09:32.146Z,58.02
2023-02-27T23:12:36.397Z,58.00
2023-02-27T23:15:39.585Z,58.01
2023-02-27T23:18:48.927Z,58.10
2023-02-27T23:21:52.194Z,58.29
2023-02-27T23:24:56.362Z,58.29
2023-02-27T23:27:59.952Z,58.42
2023-02-27T23:31:07.377Z,58.41
2023-02-27T23:34:11.098Z,58.52
2023-02-27T23:37:14.321Z,58.35
2023-02-27T23:40:18.630Z,58.39
2023-02-27T23:43:22.477Z,58.51
2023-02-27T23:46:30.394Z,58.47
2023-02-27T23:49:33.967Z,58.84
2023-02-27T23:52:37.366Z,58.87
2023-02-27T23:55:41.256Z,58.85
2023-02-27T23:58:45.538Z,58.86
